MRPV

Tobias Bolanos International Airport

San Jose, Costa Rica
MRPV 231700Z 2318/2418 10015KT 9999 SCT030 SCT200 TX27/2417Z TN19/2410Z
Issued Valid From Valid To
Apr-23 @ 17:00 UTC
(6 hours ago)
Apr-23 @ 18:00 UTC
(5 hours ago)
Apr-24 @ 18:00 UTC
(in 19 hours)
Apr-23 @ 18:00 to Apr-24 @ 18:00
MRPV 231700Z 2318/2418 10015KT 9999 SCT030 SCT200 TX27/2417Z TN19/2410Z
Wind Visibility Clouds
100° at 15 knots 10,000+ meters
  • Scattered at 3,000' AGL
  • Scattered at 20,000' AGL
MRPV 231700Z 2318/2418 10015KT 9999 SCT030 SCT200 TX27/2417Z TN19/2410Z
Issued Apr-23 @ 17:00 UTC
(6 hours ago)
Valid From Apr-23 @ 18:00 UTC
(5 hours ago)
Valid To Apr-24 @ 18:00 UTC
(in 19 hours)
Apr-23 @ 18:00 - Apr-24 @ 18:00
Wind Visibility
100° at 15 knots 10,000+ meters
Clouds
  • Scattered at 3,000' AGL
  • Scattered at 20,000' AGL